Riverdance — C6CG3 — position and weather

sailwx.info

Track history (hours):
 
Tides and Currents Weather Stations Pressure Air Temp Water Temp Dewpoint Dewpoint Depression Visibility Wind Speed Wind Dir Waves Ship Positions

Riverdance

Operator: Crescent Marine Services Ltd

Last reported at 2019-Aug-04 07:32 UTC. Time now 2019-Aug-20 09:47 UTC.
Position N 60°58' W 002°12'.
Warning: this ship's position is 16 days out of date.

Length 72 m; draft 5.8 m.

Type: Other ship. MMSI: 311000463.

Date/timePositionNaut miles runAvg speedWind from/ knotsBaromVisibWave heightAir tempDewpointWater temp
2019-Aug-04 07:32N 60°58' W 002°12'0 3.7
2019-Aug-04 07:30N 60°59' W 002°11'0 0.3
2019-Aug-04 06:04N 60°58' W 002°11'1 3.6
2019-Aug-04 05:49N 60°59' W 002°12'1 1.2
2019-Aug-04 05:00N 60°58' W 002°11'1 1.5
2019-Aug-04 04:20N 60°57' W 002°10'2 3.8
2019-Aug-04 03:41N 60°59' W 002°13'2 0.2
2019-Aug-03 18:02N 60°57' W 002°14'1 4.2
2019-Aug-03 17:50N 60°58' W 002°13'3 3.9
2019-Aug-03 17:10N 60°59' W 002°09'2 0.1
2019-Aug-03 02:13N 60°59' W 002°13'3 0.4
2019-Aug-02 17:33N 60°57' W 002°08'0 4.0
2019-Aug-02 17:29N 60°57' W 002°08'2 3.9
2019-Aug-02 17:00N 60°58' W 002°12'2 4.0
2019-Aug-02 16:30N 60°59' W 002°14'2 4.0
2019-Aug-02 16:00N 60°58' W 002°11'2 3.4
2019-Aug-02 15:29N 60°57' W 002°09'2 4.1
2019-Aug-02 15:00N 60°58' W 002°12'2 3.3
2019-Aug-02 14:29N 60°59' W 002°14'2 3.6
2019-Aug-02 14:00N 60°58' W 002°11'2 4.0
2019-Aug-02 13:30N 60°57' W 002°08'2 3.6
2019-Aug-02 13:00N 60°58' W 002°12'2 4.0
2019-Aug-02 12:30N 60°59' W 002°15'2 3.5
2019-Aug-02 12:00N 61°01' W 002°15'2 3.1
2019-Aug-02 11:30N 61°01' W 002°12'2 3.0
2019-Aug-02 10:59N 61°02' W 002°09'1 2.8
2019-Aug-02 10:30N 61°01' W 002°07'2 3.1
2019-Aug-02 09:59N 60°59' W 002°06'2 3.6
2019-Aug-02 09:29N 60°58' W 002°05'2 4.0
2019-Aug-02 08:58N 60°56' W 002°03'3 3.2
2019-Aug-02 08:03N 60°58' W 002°07'0 4.1
2019-Aug-02 08:00N 60°58' W 002°07'2 4.0
2019-Aug-02 07:28N 60°60' W 002°09'2 3.2
2019-Aug-02 06:59N 61°01' W 002°11'108 2.7
2019-Jul-31 14:55N 59°22' W 003°39'7 9.8
2019-Jul-31 14:15N 59°16' W 003°44'2 9.3
2019-Jul-31 14:00N 59°14' W 003°46'5 9.9
2019-Jul-31 13:30N 59°09' W 003°46'510.2
2019-Jul-31 13:00N 59°04' W 003°47'510.0
2019-Jul-31 12:30N 58°59' W 003°46'510.1
2019-Jul-31 12:00N 58°54' W 003°46'5 9.8
2019-Jul-31 11:30N 58°49' W 003°45'510.8
2019-Jul-31 11:00N 58°44' W 003°39'510.5
2019-Jul-31 10:30N 58°40' W 003°33'3 6.9
2019-Jul-31 10:00N 58°37' W 003°32'0 0.0
2019-Jul-31 05:16N 58°37' W 003°32'0 1.1
2019-Jul-31 05:00N 58°37' W 003°32'4 7.3
2019-Jul-31 04:30N 58°40' W 003°35'5 9.7
2019-Jul-31 04:00N 58°44' W 003°39'5 9.5
2019-Jul-31 03:30N 58°48' W 003°43'5 9.8
2019-Jul-31 03:00N 58°53' W 003°46'1010.2
2019-Jul-31 02:00N 59°03' W 003°46'510.1
2019-Jul-31 01:30N 59°08' W 003°46'510.3
2019-Jul-31 01:00N 59°14' W 003°45'5 9.9
2019-Jul-31 00:30N 59°18' W 003°43'510.6
2019-Jul-31 00:00N 59°21' W 003°35'  
2019-Jul-28 14:36N 60°58' W 002°11'0 0.0
2019-Jul-28 14:29N 60°58' W 002°11'0 0.2
2019-Jul-28 13:33N 60°58' W 002°11'0 1.6
2019-Jul-28 13:30N 60°58' W 002°11'0 0.0
2019-Jul-28 12:59N 60°58' W 002°11'0 0.3
2019-Jul-28 12:29N 60°58' W 002°11'0 0.0
2019-Jul-28 12:00N 60°58' W 002°11'0 0.0
2019-Jul-28 11:30N 60°58' W 002°11'0 0.1
2019-Jul-28 11:00N 60°58' W 002°11'0 0.1
2019-Jul-28 10:30N 60°58' W 002°11'0 0.0
2019-Jul-28 09:59N 60°58' W 002°11'0 0.0
2019-Jul-28 09:30N 60°58' W 002°11'0 0.2
2019-Jul-28 08:58N 60°58' W 002°11'1 0.0
2019-Jul-26 11:29N 60°58' W 002°13'1 2.6
2019-Jul-26 10:54N 60°57' W 002°11'2 2.8
2019-Jul-26 10:18N 60°58' W 002°09'1 2.8
2019-Jul-26 09:57N 60°58' W 002°10'0 0.6
2019-Jul-26 09:18N 60°58' W 002°10'0 0.2
2019-Jul-26 08:55N 60°58' W 002°10'0 0.1
2019-Jul-26 08:09N 60°58' W 002°10'0 0.5
2019-Jul-26 07:50N 60°58' W 002°09'1 3.8
2019-Jul-26 07:30N 60°57' W 002°11'2 2.7
2019-Jul-26 06:54N 60°58' W 002°09'1 2.8
2019-Jul-26 06:30N 60°58' W 002°11'0 0.4
2019-Jul-26 06:00N 60°58' W 002°11'0 0.6
2019-Jul-26 05:29N 60°58' W 002°10'1 1.4
2019-Jul-26 04:59N 60°58' W 002°11'1 2.5
2019-Jul-26 04:30N 60°59' W 002°10'2 3.5
2019-Jul-26 03:59N 60°57' W 002°12'2 3.7
2019-Jul-26 03:30N 60°59' W 002°10'1 2.8
2019-Jul-26 03:00N 60°58' W 002°12'2 0.2
2019-Jul-25 17:14N 60°59' W 002°11'  
Track history (hours):
 
Tides and Currents Weather Stations Pressure Air Temp Water Temp Dewpoint Dewpoint Depression Visibility Wind Speed Wind Dir Waves Ship Positions

Riverdance

Operator: Crescent Marine Services Ltd

Last reported at 2019-Aug-04 07:32 UTC. Time now 2019-Aug-20 09:47 UTC.
Position N 60°58' W 002°12'.
Warning: this ship's position is 16 days out of date.

Length 72 m; draft 5.8 m.

Type: Other ship. MMSI: 311000463.

Date/timePositionNaut miles runAvg speedWind from/ knotsBaromVisibWave heightAir tempDewpointWater temp
2019-Aug-04 07:32N 60°58' W 002°12'0 3.7
2019-Aug-04 07:30N 60°59' W 002°11'0 0.3
2019-Aug-04 06:04N 60°58' W 002°11'1 3.6
2019-Aug-04 05:49N 60°59' W 002°12'1 1.2
2019-Aug-04 05:00N 60°58' W 002°11'1 1.5
2019-Aug-04 04:20N 60°57' W 002°10'2 3.8
2019-Aug-04 03:41N 60°59' W 002°13'2 0.2
2019-Aug-03 18:02N 60°57' W 002°14'1 4.2
2019-Aug-03 17:50N 60°58' W 002°13'3 3.9
2019-Aug-03 17:10N 60°59' W 002°09'2 0.1
2019-Aug-03 02:13N 60°59' W 002°13'3 0.4
2019-Aug-02 17:33N 60°57' W 002°08'0 4.0
2019-Aug-02 17:29N 60°57' W 002°08'2 3.9
2019-Aug-02 17:00N 60°58' W 002°12'2 4.0
2019-Aug-02 16:30N 60°59' W 002°14'2 4.0
2019-Aug-02 16:00N 60°58' W 002°11'2 3.4
2019-Aug-02 15:29N 60°57' W 002°09'2 4.1
2019-Aug-02 15:00N 60°58' W 002°12'2 3.3
2019-Aug-02 14:29N 60°59' W 002°14'2 3.6
2019-Aug-02 14:00N 60°58' W 002°11'2 4.0
2019-Aug-02 13:30N 60°57' W 002°08'2 3.6
2019-Aug-02 13:00N 60°58' W 002°12'2 4.0
2019-Aug-02 12:30N 60°59' W 002°15'2 3.5
2019-Aug-02 12:00N 61°01' W 002°15'2 3.1
2019-Aug-02 11:30N 61°01' W 002°12'2 3.0
2019-Aug-02 10:59N 61°02' W 002°09'1 2.8
2019-Aug-02 10:30N 61°01' W 002°07'2 3.1
2019-Aug-02 09:59N 60°59' W 002°06'2 3.6
2019-Aug-02 09:29N 60°58' W 002°05'2 4.0
2019-Aug-02 08:58N 60°56' W 002°03'3 3.2
2019-Aug-02 08:03N 60°58' W 002°07'0 4.1
2019-Aug-02 08:00N 60°58' W 002°07'2 4.0
2019-Aug-02 07:28N 60°60' W 002°09'2 3.2
2019-Aug-02 06:59N 61°01' W 002°11'108 2.7
2019-Jul-31 14:55N 59°22' W 003°39'7 9.8
2019-Jul-31 14:15N 59°16' W 003°44'2 9.3
2019-Jul-31 14:00N 59°14' W 003°46'5 9.9
2019-Jul-31 13:30N 59°09' W 003°46'510.2
2019-Jul-31 13:00N 59°04' W 003°47'510.0
2019-Jul-31 12:30N 58°59' W 003°46'510.1
2019-Jul-31 12:00N 58°54' W 003°46'5 9.8
2019-Jul-31 11:30N 58°49' W 003°45'510.8
2019-Jul-31 11:00N 58°44' W 003°39'510.5
2019-Jul-31 10:30N 58°40' W 003°33'3 6.9
2019-Jul-31 10:00N 58°37' W 003°32'0 0.0
2019-Jul-31 05:16N 58°37' W 003°32'0 1.1
2019-Jul-31 05:00N 58°37' W 003°32'4 7.3
2019-Jul-31 04:30N 58°40' W 003°35'5 9.7
2019-Jul-31 04:00N 58°44' W 003°39'5 9.5
2019-Jul-31 03:30N 58°48' W 003°43'5 9.8
2019-Jul-31 03:00N 58°53' W 003°46'1010.2
2019-Jul-31 02:00N 59°03' W 003°46'510.1
2019-Jul-31 01:30N 59°08' W 003°46'510.3
2019-Jul-31 01:00N 59°14' W 003°45'5 9.9
2019-Jul-31 00:30N 59°18' W 003°43'510.6
2019-Jul-31 00:00N 59°21' W 003°35'  
2019-Jul-28 14:36N 60°58' W 002°11'0 0.0
2019-Jul-28 14:29N 60°58' W 002°11'0 0.2
2019-Jul-28 13:33N 60°58' W 002°11'0 1.6
2019-Jul-28 13:30N 60°58' W 002°11'0 0.0
2019-Jul-28 12:59N 60°58' W 002°11'0 0.3
2019-Jul-28 12:29N 60°58' W 002°11'0 0.0
2019-Jul-28 12:00N 60°58' W 002°11'0 0.0
2019-Jul-28 11:30N 60°58' W 002°11'0 0.1
2019-Jul-28 11:00N 60°58' W 002°11'0 0.1
2019-Jul-28 10:30N 60°58' W 002°11'0 0.0
2019-Jul-28 09:59N 60°58' W 002°11'0 0.0
2019-Jul-28 09:30N 60°58' W 002°11'0 0.2
2019-Jul-28 08:58N 60°58' W 002°11'1 0.0
2019-Jul-26 11:29N 60°58' W 002°13'1 2.6
2019-Jul-26 10:54N 60°57' W 002°11'2 2.8
2019-Jul-26 10:18N 60°58' W 002°09'1 2.8
2019-Jul-26 09:57N 60°58' W 002°10'0 0.6
2019-Jul-26 09:18N 60°58' W 002°10'0 0.2
2019-Jul-26 08:55N 60°58' W 002°10'0 0.1
2019-Jul-26 08:09N 60°58' W 002°10'0 0.5
2019-Jul-26 07:50N 60°58' W 002°09'1 3.8
2019-Jul-26 07:30N 60°57' W 002°11'2 2.7
2019-Jul-26 06:54N 60°58' W 002°09'1 2.8
2019-Jul-26 06:30N 60°58' W 002°11'0 0.4
2019-Jul-26 06:00N 60°58' W 002°11'0 0.6
2019-Jul-26 05:29N 60°58' W 002°10'1 1.4
2019-Jul-26 04:59N 60°58' W 002°11'1 2.5
2019-Jul-26 04:30N 60°59' W 002°10'2 3.5
2019-Jul-26 03:59N 60°57' W 002°12'2 3.7
2019-Jul-26 03:30N 60°59' W 002°10'1 2.8
2019-Jul-26 03:00N 60°58' W 002°12'2 0.2
2019-Jul-25 17:14N 60°59' W 002°11'  

Dump ship's entire track history